sensor_id;sensor_type;location;lat;lon;timestamp;pressure;altitude;pressure_sealevel;temperature;humidity
62978;BME280;49073;42.352;23.808;2023-04-01T00:02:20;93883.72;;;8.10;74.13
62978;BME280;49073;42.352;23.808;2023-04-01T00:05:21;93879.19;;;8.10;74.98
62978;BME280;49073;42.352;23.808;2023-04-01T00:08:22;93880.59;;;8.04;75.27
62978;BME280;49073;42.352;23.808;2023-04-01T00:11:23;93873.88;;;8.10;74.83
62978;BME280;49073;42.352;23.808;2023-04-01T00:14:24;93873.56;;;8.15;73.62
62978;BME280;49073;42.352;23.808;2023-04-01T00:17:24;93871.66;;;8.43;73.30
62978;BME280;49073;42.352;23.808;2023-04-01T00:20:25;93870.22;;;8.22;73.32
62978;BME280;49073;42.352;23.808;2023-04-01T00:23:26;93874.06;;;8.25;73.56
62978;BME280;49073;42.352;23.808;2023-04-01T00:26:26;93876.06;;;8.32;73.19
62978;BME280;49073;42.352;23.808;2023-04-01T00:29:27;93880.69;;;8.38;73.57
62978;BME280;49073;42.352;23.808;2023-04-01T00:32:29;93882.50;;;8.30;73.28
62978;BME280;49073;42.352;23.808;2023-04-01T00:35:31;93877.94;;;8.31;72.88
62978;BME280;49073;42.352;23.808;2023-04-01T00:38:32;93871.56;;;8.36;73.19
62978;BME280;49073;42.352;23.808;2023-04-01T00:41:33;93862.09;;;8.35;73.51
62978;BME280;49073;42.352;23.808;2023-04-01T00:44:34;93856.69;;;8.27;73.49
62978;BME280;49073;42.352;23.808;2023-04-01T00:47:34;93869.22;;;8.30;72.14
62978;BME280;49073;42.352;23.808;2023-04-01T00:50:36;93884.75;;;8.28;71.73
62978;BME280;49073;42.352;23.808;2023-04-01T00:53:41;93876.56;;;8.41;70.26
62978;BME280;49073;42.352;23.808;2023-04-01T00:57:32;93879.22;;;8.41;70.61
62978;BME280;49073;42.352;23.808;2023-04-01T01:00:10;93872.91;;;8.49;70.32
62978;BME280;49073;42.352;23.808;2023-04-01T01:03:12;93872.38;;;8.67;70.76
62978;BME280;49073;42.352;23.808;2023-04-01T01:12:50;93850.94;;;8.52;71.93
62978;BME280;49073;42.352;23.808;2023-04-01T01:16:10;93845.38;;;8.34;73.28
62978;BME280;49073;42.352;23.808;2023-04-01T01:29:39;93836.06;;;8.48;72.30
62978;BME280;49073;42.352;23.808;2023-04-01T01:33:13;93842.16;;;8.48;71.82
62978;BME280;49073;42.352;23.808;2023-04-01T01:36:18;93847.13;;;8.50;72.12
62978;BME280;49073;42.352;23.808;2023-04-01T01:39:25;93837.19;;;8.47;73.21
62978;BME280;49073;42.352;23.808;2023-04-01T01:42:29;93829.13;;;8.39;72.70
62978;BME280;49073;42.352;23.808;2023-04-01T01:45:34;93831.94;;;8.23;73.30
62978;BME280;49073;42.352;23.808;2023-04-01T01:48:36;93814.72;;;8.40;73.23
62978;BME280;49073;42.352;23.808;2023-04-01T01:51:37;93815.06;;;8.35;73.14
62978;BME280;49073;42.352;23.808;2023-04-01T01:57:50;93824.22;;;8.41;72.49
62978;BME280;49073;42.352;23.808;2023-04-01T02:00:55;93831.66;;;8.55;72.67
62978;BME280;49073;42.352;23.808;2023-04-01T02:03:58;93833.41;;;8.48;73.20
62978;BME280;49073;42.352;23.808;2023-04-01T02:07:02;93820.91;;;8.48;73.42
62978;BME280;49073;42.352;23.808;2023-04-01T02:10:05;93816.31;;;8.45;73.73
62978;BME280;49073;42.352;23.808;2023-04-01T02:13:18;93817.69;;;8.32;74.25
62978;BME280;49073;42.352;23.808;2023-04-01T02:16:52;93822.56;;;8.29;73.72
62978;BME280;49073;42.352;23.808;2023-04-01T02:20:16;93807.88;;;8.36;74.23
62978;BME280;49073;42.352;23.808;2023-04-01T02:23:18;93798.50;;;8.45;73.91
62978;BME280;49073;42.352;23.808;2023-04-01T02:26:18;93777.94;;;8.39;74.86
62978;BME280;49073;42.352;23.808;2023-04-01T02:29:22;93787.97;;;8.22;74.43
62978;BME280;49073;42.352;23.808;2023-04-01T02:32:24;93781.41;;;8.12;74.73
62978;BME280;49073;42.352;23.808;2023-04-01T02:35:26;93781.66;;;8.04;74.69
62978;BME280;49073;42.352;23.808;2023-04-01T02:38:27;93772.34;;;8.17;74.50
62978;BME280;49073;42.352;23.808;2023-04-01T02:41:28;93770.56;;;8.25;73.46
62978;BME280;49073;42.352;23.808;2023-04-01T02:44:29;93759.69;;;8.03;73.42
62978;BME280;49073;42.352;23.808;2023-04-01T02:47:29;93764.38;;;7.86;73.54
62978;BME280;49073;42.352;23.808;2023-04-01T02:50:30;93763.56;;;7.82;73.24
62978;BME280;49073;42.352;23.808;2023-04-01T02:53:30;93760.63;;;7.64;73.68
62978;BME280;49073;42.352;23.808;2023-04-01T02:56:31;93761.72;;;7.60;73.33
62978;BME280;49073;42.352;23.808;2023-04-01T02:59:31;93775.63;;;7.53;72.38
62978;BME280;49073;42.352;23.808;2023-04-01T03:02:32;93770.06;;;7.11;73.34
62978;BME280;49073;42.352;23.808;2023-04-01T03:05:32;93765.59;;;7.16;73.73
62978;BME280;49073;42.352;23.808;2023-04-01T03:08:33;93766.22;;;7.09;73.19
62978;BME280;49073;42.352;23.808;2023-04-01T03:11:34;93762.38;;;7.06;73.86
62978;BME280;49073;42.352;23.808;2023-04-01T03:14:34;93758.66;;;7.07;74.02
62978;BME280;49073;42.352;23.808;2023-04-01T03:17:35;93757.94;;;7.10;74.50
62978;BME280;49073;42.352;23.808;2023-04-01T03:20:35;93753.06;;;7.12;74.70
62978;BME280;49073;42.352;23.808;2023-04-01T03:23:36;93763.25;;;7.10;75.08
62978;BME280;49073;42.352;23.808;2023-04-01T03:26:36;93775.38;;;7.11;75.56
62978;BME280;49073;42.352;23.808;2023-04-01T03:29:37;93773.41;;;7.08;76.02
62978;BME280;49073;42.352;23.808;2023-04-01T03:32:37;93766.00;;;7.18;75.99
62978;BME280;49073;42.352;23.808;2023-04-01T03:35:38;93773.47;;;7.12;76.74
62978;BME280;49073;42.352;23.808;2023-04-01T03:38:40;93761.97;;;7.27;77.33
62978;BME280;49073;42.352;23.808;2023-04-01T03:41:42;93752.69;;;7.14;77.78
62978;BME280;49073;42.352;23.808;2023-04-01T03:44:43;93750.53;;;7.20;77.07
62978;BME280;49073;42.352;23.808;2023-04-01T03:47:43;93753.56;;;7.45;77.18
62978;BME280;49073;42.352;23.808;2023-04-01T03:50:44;93760.72;;;7.45;76.96
62978;BME280;49073;42.352;23.808;2023-04-01T03:53:45;93751.06;;;7.33;76.74
62978;BME280;49073;42.352;23.808;2023-04-01T03:56:46;93754.38;;;7.49;76.53
62978;BME280;49073;42.352;23.808;2023-04-01T03:59:47;93768.66;;;7.41;75.83
62978;BME280;49073;42.352;23.808;2023-04-01T04:02:49;93772.97;;;7.53;75.30
62978;BME280;49073;42.352;23.808;2023-04-01T04:05:50;93768.66;;;7.68;74.51
62978;BME280;49073;42.352;23.808;2023-04-01T04:08:51;93765.44;;;7.55;74.35
62978;BME280;49073;42.352;23.808;2023-04-01T04:11:52;93736.03;;;7.64;74.39
62978;BME280;49073;42.352;23.808;2023-04-01T04:14:52;93738.84;;;7.75;74.21
62978;BME280;49073;42.352;23.808;2023-04-01T04:17:53;93740.56;;;7.63;74.50
62978;BME280;49073;42.352;23.808;2023-04-01T04:20:53;93728.41;;;7.62;74.68
62978;BME280;49073;42.352;23.808;2023-04-01T04:23:54;93722.97;;;7.78;74.20
62978;BME280;49073;42.352;23.808;2023-04-01T04:26:54;93729.88;;;7.86;74.50
62978;BME280;49073;42.352;23.808;2023-04-01T04:29:55;93745.06;;;7.86;74.30
62978;BME280;49073;42.352;23.808;2023-04-01T04:32:56;93733.56;;;7.78;75.05
62978;BME280;49073;42.352;23.808;2023-04-01T04:35:57;93730.66;;;7.33;75.11
62978;BME280;49073;42.352;23.808;2023-04-01T04:38:59;93731.88;;;7.39;75.17
62978;BME280;49073;42.352;23.808;2023-04-01T04:42:02;93732.59;;;7.63;74.53
62978;BME280;49073;42.352;23.808;2023-04-01T04:45:06;93734.13;;;7.64;73.92
62978;BME280;49073;42.352;23.808;2023-04-01T04:48:08;93724.50;;;7.52;74.51
62978;BME280;49073;42.352;23.808;2023-04-01T04:51:13;93700.19;;;7.47;74.04
62978;BME280;49073;42.352;23.808;2023-04-01T04:54:14;93693.44;;;7.53;74.09
62978;BME280;49073;42.352;23.808;2023-04-01T04:57:15;93700.28;;;7.54;73.99
62978;BME280;49073;42.352;23.808;2023-04-01T05:00:16;93704.84;;;7.53;74.19
62978;BME280;49073;42.352;23.808;2023-04-01T05:03:16;93687.94;;;7.65;74.10
62978;BME280;49073;42.352;23.808;2023-04-01T05:06:17;93681.66;;;7.77;74.25
62978;BME280;49073;42.352;23.808;2023-04-01T05:09:18;93670.56;;;7.68;74.65
62978;BME280;49073;42.352;23.808;2023-04-01T05:12:18;93664.78;;;7.62;75.08
62978;BME280;49073;42.352;23.808;2023-04-01T05:15:19;93650.53;;;7.74;74.81
62978;BME280;49073;42.352;23.808;2023-04-01T05:18:21;93634.59;;;7.70;74.31
62978;BME280;49073;42.352;23.808;2023-04-01T05:21:21;93628.28;;;7.52;74.33
62978;BME280;49073;42.352;23.808;2023-04-01T05:24:22;93625.78;;;7.63;73.97
62978;BME280;49073;42.352;23.808;2023-04-01T05:27:22;93623.06;;;7.90;72.88
62978;BME280;49073;42.352;23.808;2023-04-01T05:30:23;93620.19;;;8.02;72.53
62978;BME280;49073;42.352;23.808;2023-04-01T05:33:23;93599.97;;;7.90;72.56
62978;BME280;49073;42.352;23.808;2023-04-01T05:36:24;93598.38;;;7.82;73.34
62978;BME280;49073;42.352;23.808;2023-04-01T05:39:25;93596.53;;;7.90;74.02
62978;BME280;49073;42.352;23.808;2023-04-01T05:42:25;93595.59;;;8.05;73.84
62978;BME280;49073;42.352;23.808;2023-04-01T05:45:26;93603.09;;;7.99;73.40
62978;BME280;49073;42.352;23.808;2023-04-01T05:48:27;93599.66;;;7.95;74.61
62978;BME280;49073;42.352;23.808;2023-04-01T05:51:27;93600.31;;;7.89;74.45
62978;BME280;49073;42.352;23.808;2023-04-01T05:54:28;93599.00;;;7.71;74.42
62978;BME280;49073;42.352;23.808;2023-04-01T05:57:28;93602.28;;;7.61;74.91
62978;BME280;49073;42.352;23.808;2023-04-01T06:00:29;93603.28;;;7.49;75.51
62978;BME280;49073;42.352;23.808;2023-04-01T06:03:32;93609.78;;;7.55;75.68
62978;BME280;49073;42.352;23.808;2023-04-01T06:06:34;93617.66;;;7.79;74.55
62978;BME280;49073;42.352;23.808;2023-04-01T06:09:35;93614.91;;;8.06;73.84
62978;BME280;49073;42.352;23.808;2023-04-01T06:12:50;93625.84;;;8.38;72.58
62978;BME280;49073;42.352;23.808;2023-04-01T06:25:55;93613.53;;;9.06;67.18
62978;BME280;49073;42.352;23.808;2023-04-01T06:29:47;93617.47;;;9.26;66.93
62978;BME280;49073;42.352;23.808;2023-04-01T06:33:14;93611.84;;;9.42;66.20
62978;BME280;49073;42.352;23.808;2023-04-01T06:46:22;93597.81;;;10.63;65.09
62978;BME280;49073;42.352;23.808;2023-04-01T06:55:44;93607.63;;;10.26;65.30
62978;BME280;49073;42.352;23.808;2023-04-01T06:58:50;93606.16;;;10.43;64.99
62978;BME280;49073;42.352;23.808;2023-04-01T07:01:58;93597.81;;;10.59;65.05
62978;BME280;49073;42.352;23.808;2023-04-01T07:05:00;93595.53;;;10.80;64.03
62978;BME280;49073;42.352;23.808;2023-04-01T07:08:06;93584.50;;;10.63;63.59
62978;BME280;49073;42.352;23.808;2023-04-01T07:11:12;93579.56;;;10.69;64.43
62978;BME280;49073;42.352;23.808;2023-04-01T07:14:30;93584.13;;;10.65;65.73
62978;BME280;49073;42.352;23.808;2023-04-01T07:17:33;93587.53;;;10.72;64.77
62978;BME280;49073;42.352;23.808;2023-04-01T07:20:37;93578.75;;;10.43;65.09
62978;BME280;49073;42.352;23.808;2023-04-01T07:23:42;93588.28;;;10.55;66.23
62978;BME280;49073;42.352;23.808;2023-04-01T07:26:45;93590.97;;;10.69;65.97
62978;BME280;49073;42.352;23.808;2023-04-01T07:29:46;93584.50;;;10.81;65.42
62978;BME280;49073;42.352;23.808;2023-04-01T07:32:56;93587.16;;;10.81;66.15
62978;BME280;49073;42.352;23.808;2023-04-01T07:36:28;93579.16;;;10.63;66.20
62978;BME280;49073;42.352;23.808;2023-04-01T07:39:58;93581.06;;;10.66;66.78
62978;BME280;49073;42.352;23.808;2023-04-01T07:43:08;93580.31;;;10.76;66.18
62978;BME280;49073;42.352;23.808;2023-04-01T07:56:10;93552.16;;;10.79;66.63
62978;BME280;49073;42.352;23.808;2023-04-01T08:06:22;93538.81;;;10.75;67.77
62978;BME280;49073;42.352;23.808;2023-04-01T08:15:59;93531.59;;;10.72;68.28
62978;BME280;49073;42.352;23.808;2023-04-01T08:22:42;93522.44;;;10.81;68.86
62978;BME280;49073;42.352;23.808;2023-04-01T08:25:54;93518.25;;;10.83;68.74
62978;BME280;49073;42.352;23.808;2023-04-01T08:29:27;93527.03;;;10.80;68.47
62978;BME280;49073;42.352;23.808;2023-04-01T08:32:39;93516.34;;;10.84;68.12
62978;BME280;49073;42.352;23.808;2023-04-01T08:38:59;93515.97;;;10.85;68.34
62978;BME280;49073;42.352;23.808;2023-04-01T08:48:59;93494.66;;;10.78;69.73
62978;BME280;49073;42.352;23.808;2023-04-01T09:15:30;93444.28;;;11.20;68.45
62978;BME280;49073;42.352;23.808;2023-04-01T09:28:56;93417.50;;;12.05;66.55
62978;BME280;49073;42.352;23.808;2023-04-01T09:56:37;93355.16;;;13.82;60.40
62978;BME280;49073;42.352;23.808;2023-04-01T09:59:20;93339.22;;;14.22;59.13
62978;BME280;49073;42.352;23.808;2023-04-01T10:32:15;93318.53;;;14.87;54.59
62978;BME280;49073;42.352;23.808;2023-04-01T10:46:11;93293.22;;;14.04;55.48
62978;BME280;49073;42.352;23.808;2023-04-01T11:23:44;93281.25;;;13.64;56.96
62978;BME280;49073;42.352;23.808;2023-04-01T11:39:59;93265.25;;;13.85;56.31
62978;BME280;49073;42.352;23.808;2023-04-01T11:53:02;93241.84;;;14.69;55.08
62978;BME280;49073;42.352;23.808;2023-04-01T12:12:36;93216.84;;;13.75;52.86
62978;BME280;49073;42.352;23.808;2023-04-01T12:19:20;93255.06;;;13.76;53.30
62978;BME280;49073;42.352;23.808;2023-04-01T12:26:01;93316.69;;;13.96;52.06
62978;BME280;49073;42.352;23.808;2023-04-01T12:33:10;93424.00;;;13.23;62.79
62978;BME280;49073;42.352;23.808;2023-04-01T12:36:37;93416.75;;;12.50;70.68
62978;BME280;49073;42.352;23.808;2023-04-01T12:54:11;93434.50;;;11.70;84.47
62978;BME280;49073;42.352;23.808;2023-04-01T13:07:23;93441.56;;;11.31;84.72
62978;BME280;49073;42.352;23.808;2023-04-01T13:17:22;93420.34;;;11.02;88.59
62978;BME280;49073;42.352;23.808;2023-04-01T13:20:44;93424.13;;;11.12;89.43
62978;BME280;49073;42.352;23.808;2023-04-01T13:23:58;93388.28;;;11.16;91.27
62978;BME280;49073;42.352;23.808;2023-04-01T13:33:52;93375.22;;;12.00;90.10
62978;BME280;49073;42.352;23.808;2023-04-01T13:37:16;93345.78;;;12.07;91.25
62978;BME280;49073;42.352;23.808;2023-04-01T13:43:43;93356.63;;;12.31;91.32
62978;BME280;49073;42.352;23.808;2023-04-01T14:11:24;93320.91;;;12.52;86.48
62978;BME280;49073;42.352;23.808;2023-04-01T14:17:46;93312.69;;;12.40;82.33
62978;BME280;49073;42.352;23.808;2023-04-01T14:21:23;93311.91;;;12.39;81.70
62978;BME280;49073;42.352;23.808;2023-04-01T14:24:47;93299.53;;;12.52;81.00
62978;BME280;49073;42.352;23.808;2023-04-01T14:31:12;93302.72;;;12.44;79.99
62978;BME280;49073;42.352;23.808;2023-04-01T14:40:51;93305.22;;;12.20;82.72
62978;BME280;49073;42.352;23.808;2023-04-01T14:50:53;93324.38;;;11.02;97.48
62978;BME280;49073;42.352;23.808;2023-04-01T14:57:36;93343.78;;;11.06;99.42
62978;BME280;49073;42.352;23.808;2023-04-01T15:10:24;93331.13;;;11.21;100.00
62978;BME280;49073;42.352;23.808;2023-04-01T15:16:59;93355.88;;;11.29;84.99
62978;BME280;49073;42.352;23.808;2023-04-01T15:20:21;93329.63;;;11.20;82.52
62978;BME280;49073;42.352;23.808;2023-04-01T15:26:42;93332.41;;;10.98;76.76
62978;BME280;49073;42.352;23.808;2023-04-01T15:33:37;93343.91;;;10.84;77.54
62978;BME280;49073;42.352;23.808;2023-04-01T15:46:47;93303.97;;;11.41;75.96
62978;BME280;49073;42.352;23.808;2023-04-01T15:53:34;93297.44;;;11.49;74.91
62978;BME280;49073;42.352;23.808;2023-04-01T16:19:47;93297.16;;;10.65;78.35
62978;BME280;49073;42.352;23.808;2023-04-01T16:23:02;93301.38;;;10.55;77.46
62978;BME280;49073;42.352;23.808;2023-04-01T16:26:11;93305.97;;;10.44;77.57
62978;BME280;49073;42.352;23.808;2023-04-01T16:32:27;93310.91;;;10.49;76.36
62978;BME280;49073;42.352;23.808;2023-04-01T16:35:41;93316.25;;;10.38;76.89
62978;BME280;49073;42.352;23.808;2023-04-01T16:38:58;93337.19;;;10.32;77.27
62978;BME280;49073;42.352;23.808;2023-04-01T16:52:16;93410.63;;;9.79;75.23
62978;BME280;49073;42.352;23.808;2023-04-01T16:55:20;93456.91;;;9.45;78.06
62978;BME280;49073;42.352;23.808;2023-04-01T16:58:27;93478.03;;;9.09;80.30
62978;BME280;49073;42.352;23.808;2023-04-01T17:01:41;93490.81;;;8.85;84.27
62978;BME280;49073;42.352;23.808;2023-04-01T17:11:24;93509.44;;;8.37;89.61
62978;BME280;49073;42.352;23.808;2023-04-01T17:21:57;93538.47;;;8.60;89.50
62978;BME280;49073;42.352;23.808;2023-04-01T17:32:21;93560.38;;;8.50;91.10
62978;BME280;49073;42.352;23.808;2023-04-01T17:35:11;93554.16;;;8.35;91.45
62978;BME280;49073;42.352;23.808;2023-04-01T17:38:47;93548.03;;;8.27;92.13
62978;BME280;49073;42.352;23.808;2023-04-01T17:41:48;93550.63;;;8.23;93.79
62978;BME280;49073;42.352;23.808;2023-04-01T17:48:18;93590.53;;;8.30;94.76
62978;BME280;49073;42.352;23.808;2023-04-01T17:51:35;93595.09;;;8.34;94.26
62978;BME280;49073;42.352;23.808;2023-04-01T17:55:15;93603.75;;;8.27;92.90
62978;BME280;49073;42.352;23.808;2023-04-01T18:05:01;93602.63;;;8.28;89.37
62978;BME280;49073;42.352;23.808;2023-04-01T18:08:22;93596.53;;;8.24;88.83
62978;BME280;49073;42.352;23.808;2023-04-01T18:22:09;93589.34;;;7.90;90.29
62978;BME280;49073;42.352;23.808;2023-04-01T18:25:26;93586.31;;;7.88;90.31
62978;BME280;49073;42.352;23.808;2023-04-01T18:28:36;93595.00;;;7.85;89.56
62978;BME280;49073;42.352;23.808;2023-04-01T18:31:38;93578.81;;;7.97;88.44
62978;BME280;49073;42.352;23.808;2023-04-01T18:38:39;93588.72;;;8.00;86.15
62978;BME280;49073;42.352;23.808;2023-04-01T18:51:49;93570.81;;;7.94;83.22
62978;BME280;49073;42.352;23.808;2023-04-01T19:05:12;93570.50;;;7.99;80.86
62978;BME280;49073;42.352;23.808;2023-04-01T19:08:33;93571.25;;;7.99;80.64
62978;BME280;49073;42.352;23.808;2023-04-01T19:11:47;93570.94;;;8.05;80.56
62978;BME280;49073;42.352;23.808;2023-04-01T19:15:18;93585.00;;;8.09;80.40
62978;BME280;49073;42.352;23.808;2023-04-01T19:21:42;93593.41;;;8.14;78.62
62978;BME280;49073;42.352;23.808;2023-04-01T19:25:48;93592.13;;;8.01;79.59
62978;BME280;49073;42.352;23.808;2023-04-01T19:28:55;93592.16;;;8.05;79.04
62978;BME280;49073;42.352;23.808;2023-04-01T19:38:53;93616.50;;;8.10;76.61
62978;BME280;49073;42.352;23.808;2023-04-01T19:52:14;93625.44;;;7.98;77.39
62978;BME280;49073;42.352;23.808;2023-04-01T19:55:47;93635.66;;;7.96;77.15
62978;BME280;49073;42.352;23.808;2023-04-01T19:59:12;93645.53;;;7.99;76.22
62978;BME280;49073;42.352;23.808;2023-04-01T20:02:54;93642.03;;;7.92;76.17
62978;BME280;49073;42.352;23.808;2023-04-01T20:06:32;93655.28;;;7.88;75.44
62978;BME280;49073;42.352;23.808;2023-04-01T20:13:05;93672.63;;;7.82;76.63
62978;BME280;49073;42.352;23.808;2023-04-01T20:16:08;93677.13;;;7.78;76.31
62978;BME280;49073;42.352;23.808;2023-04-01T20:19:11;93667.19;;;7.71;76.96
62978;BME280;49073;42.352;23.808;2023-04-01T20:25:57;93672.53;;;7.75;75.21
62978;BME280;49073;42.352;23.808;2023-04-01T20:29:37;93691.53;;;7.80;74.94
62978;BME280;49073;42.352;23.808;2023-04-01T20:46:06;93703.84;;;7.65;75.35
62978;BME280;49073;42.352;23.808;2023-04-01T20:49:14;93702.69;;;7.63;74.59
62978;BME280;49073;42.352;23.808;2023-04-01T20:52:28;93710.16;;;7.57;74.93
62978;BME280;49073;42.352;23.808;2023-04-01T20:55:51;93714.81;;;7.64;74.33
62978;BME280;49073;42.352;23.808;2023-04-01T20:59:07;93713.78;;;7.72;74.66
62978;BME280;49073;42.352;23.808;2023-04-01T21:29:37;93739.31;;;7.57;70.80
62978;BME280;49073;42.352;23.808;2023-04-01T21:33:13;93741.66;;;7.62;69.99
62978;BME280;49073;42.352;23.808;2023-04-01T21:53:44;93730.44;;;7.19;70.66
62978;BME280;49073;42.352;23.808;2023-04-01T22:07:02;93739.97;;;7.23;72.05
62978;BME280;49073;42.352;23.808;2023-04-01T22:14:19;93737.41;;;7.31;71.59
62978;BME280;49073;42.352;23.808;2023-04-01T22:20:31;93737.06;;;7.32;70.95
62978;BME280;49073;42.352;23.808;2023-04-01T22:26:48;93743.31;;;7.20;71.48
62978;BME280;49073;42.352;23.808;2023-04-01T22:36:36;93748.81;;;7.08;72.12
62978;BME280;49073;42.352;23.808;2023-04-01T22:43:15;93756.81;;;7.11;71.17
62978;BME280;49073;42.352;23.808;2023-04-01T22:46:47;93742.09;;;7.14;70.52
62978;BME280;49073;42.352;23.808;2023-04-01T22:50:19;93743.22;;;7.13;70.12
62978;BME280;49073;42.352;23.808;2023-04-01T22:56:40;93736.97;;;7.25;69.38
62978;BME280;49073;42.352;23.808;2023-04-01T22:59:48;93742.16;;;7.18;69.69
62978;BME280;49073;42.352;23.808;2023-04-01T23:03:00;93758.41;;;7.16;69.73
62978;BME280;49073;42.352;23.808;2023-04-01T23:06:04;93762.66;;;7.21;68.49
62978;BME280;49073;42.352;23.808;2023-04-01T23:09:09;93777.47;;;7.25;68.47
62978;BME280;49073;42.352;23.808;2023-04-01T23:12:13;93782.34;;;7.23;68.67
62978;BME280;49073;42.352;23.808;2023-04-01T23:15:16;93785.06;;;7.27;68.23
62978;BME280;49073;42.352;23.808;2023-04-01T23:18:21;93797.50;;;7.23;68.60
62978;BME280;49073;42.352;23.808;2023-04-01T23:21:32;93800.03;;;7.16;69.07
62978;BME280;49073;42.352;23.808;2023-04-01T23:24:44;93805.75;;;7.18;68.69
62978;BME280;49073;42.352;23.808;2023-04-01T23:30:56;93812.78;;;7.10;69.01
62978;BME280;49073;42.352;23.808;2023-04-01T23:33:59;93807.88;;;7.08;68.86
62978;BME280;49073;42.352;23.808;2023-04-01T23:37:07;93803.38;;;7.12;68.54
62978;BME280;49073;42.352;23.808;2023-04-01T23:40:13;93799.53;;;7.10;67.97
62978;BME280;49073;42.352;23.808;2023-04-01T23:43:24;93800.59;;;7.05;68.39
62978;BME280;49073;42.352;23.808;2023-04-01T23:46:27;93793.44;;;7.06;68.41
62978;BME280;49073;42.352;23.808;2023-04-01T23:49:51;93791.47;;;7.03;68.64
62978;BME280;49073;42.352;23.808;2023-04-01T23:52:57;93789.47;;;6.96;69.26
62978;BME280;49073;42.352;23.808;2023-04-01T23:56:02;93789.47;;;6.96;68.88
62978;BME280;49073;42.352;23.808;2023-04-01T23:59:02;93787.81;;;6.88;68.79
